Time;durP1;ratioP1;P1;durP2;ratioP2;P2;SDS_P1;SDS_P2;PMS_P1;PMS_P2;Temp;Humidity;BMP_temperature;BMP_pressure;BME280_temperature;BME280_humidity;BME280_pressure;Samples;Min_cycle;Max_cycle;Signal;HPM_P1;HPM_P2
2023/06/04 00:02:10;;;;;;;4.50;2.70;;;13.60;99.90;;;;;;5035815;28;20203;-79
2023/06/04 00:04:37;;;;;;;4.30;2.30;;;13.50;99.90;;;;;;5036052;28;20202;-78
2023/06/04 00:07:06;;;;;;;4.07;2.60;;;13.60;99.90;;;;;;5036077;28;20646;-77
2023/06/04 00:09:33;;;;;;;2.83;2.40;;;13.50;99.90;;;;;;5036203;28;20642;-77
2023/06/04 00:12:00;;;;;;;3.13;2.63;;;13.50;99.90;;;;;;5035774;28;20496;-78
2023/06/04 00:14:27;;;;;;;6.73;2.70;;;13.50;99.90;;;;;;5035901;28;20203;-78
2023/06/04 00:16:53;;;;;;;4.67;2.37;;;13.50;99.90;;;;;;5036121;28;20214;-78
2023/06/04 00:19:20;;;;;;;3.53;2.33;;;13.40;99.90;;;;;;5035736;28;20309;-79
2023/06/04 00:21:48;;;;;;;4.30;2.83;;;13.40;99.90;;;;;;5036669;28;20234;-78
2023/06/04 00:24:16;;;;;;;5.13;2.80;;;13.40;99.90;;;;;;5040853;28;20202;-79
2023/06/04 00:26:43;;;;;;;4.27;2.43;;;13.40;99.90;;;;;;5039675;28;20210;-79
2023/06/04 00:29:10;;;;;;;4.23;2.60;;;13.30;99.90;;;;;;5037764;28;20213;-79
2023/06/04 00:31:37;;;;;;;4.07;2.90;;;13.30;99.90;;;;;;5038780;28;20293;-76
2023/06/04 00:34:04;;;;;;;3.57;2.67;;;13.20;99.90;;;;;;5038568;28;20725;-78
2023/06/04 00:36:31;;;;;;;5.10;3.00;;;13.30;99.90;;;;;;5039157;28;20210;-78
2023/06/04 00:38:58;;;;;;;5.47;2.73;;;13.30;99.90;;;;;;5038214;28;20226;-80
2023/06/04 00:41:26;;;;;;;3.73;2.67;;;13.30;99.90;;;;;;5037777;28;20249;-78
2023/06/04 00:43:56;;;;;;;4.20;3.13;;;13.30;99.90;;;;;;5038099;28;20618;-78
2023/06/04 00:46:25;;;;;;;5.53;2.53;;;13.20;99.90;;;;;;5034557;28;20210;-78
2023/06/04 00:48:53;;;;;;;5.70;2.83;;;13.20;99.90;;;;;;5035045;28;20222;-78
2023/06/04 00:51:20;;;;;;;4.27;2.97;;;13.20;99.90;;;;;;5035435;28;20206;-78
2023/06/04 00:53:48;;;;;;;5.70;2.70;;;13.20;99.90;;;;;;5034489;28;20268;-77
2023/06/04 00:56:14;;;;;;;4.50;2.90;;;13.10;99.90;;;;;;5034408;28;20309;-81
2023/06/04 00:58:43;;;;;;;5.60;2.70;;;13.10;99.90;;;;;;5034903;28;20186;-79
2023/06/04 01:01:19;;;;;;;5.70;3.30;;;13.10;99.90;;;;;;5034151;28;20207;-77
2023/06/04 01:03:50;;;;;;;5.37;2.87;;;13.10;99.90;;;;;;5034923;28;20198;-77
2023/06/04 01:06:22;;;;;;;7.10;3.13;;;13.10;99.90;;;;;;5035071;28;20187;-78
2023/06/04 01:08:54;;;;;;;3.97;2.60;;;13.10;99.90;;;;;;5034145;28;20195;-77
2023/06/04 01:11:32;;;;;;;5.20;3.10;;;13.00;99.90;;;;;;5034525;28;20195;-75
2023/06/04 01:14:00;;;;;;;5.40;2.93;;;13.00;99.90;;;;;;5034030;28;20670;-78
2023/06/04 01:16:29;;;;;;;6.00;3.40;;;13.00;99.90;;;;;;5034339;28;20194;-77
2023/06/04 01:18:59;;;;;;;7.37;3.47;;;12.90;99.90;;;;;;5034450;28;20199;-77
2023/06/04 01:21:28;;;;;;;4.93;2.80;;;12.90;99.90;;;;;;5033471;28;20293;-77
2023/06/04 01:23:59;;;;;;;5.90;4.00;;;12.90;99.90;;;;;;5034248;28;20194;-79
2023/06/04 01:26:27;;;;;;;6.17;3.30;;;12.90;99.90;;;;;;5034387;28;20203;-78
2023/06/04 01:28:56;;;;;;;7.83;3.57;;;12.90;99.90;;;;;;5033773;28;20224;-78
2023/06/04 01:31:25;;;;;;;5.93;3.67;;;12.80;99.90;;;;;;5033940;28;20200;-78
2023/06/04 01:33:53;;;;;;;7.20;3.63;;;12.80;99.90;;;;;;5034013;28;20198;-79
2023/06/04 01:36:19;;;;;;;4.40;3.57;;;12.80;99.90;;;;;;5033832;28;20609;-78
2023/06/04 01:38:46;;;;;;;4.20;3.33;;;12.80;99.90;;;;;;5034122;28;20198;-77
2023/06/04 01:41:13;;;;;;;4.57;2.90;;;12.80;99.90;;;;;;5033713;28;20230;-78
2023/06/04 01:43:40;;;;;;;6.90;3.67;;;12.70;99.90;;;;;;5013539;28;20204;-78
2023/06/04 01:46:07;;;;;;;8.93;3.70;;;12.70;99.90;;;;;;5014430;28;20295;-79
2023/06/04 01:48:36;;;;;;;5.57;3.77;;;12.60;99.90;;;;;;5014018;28;20745;-77
2023/06/04 01:51:03;;;;;;;6.70;3.50;;;12.60;99.90;;;;;;5013381;28;20238;-77
2023/06/04 01:53:30;;;;;;;5.27;3.70;;;12.60;99.90;;;;;;5013349;28;20762;-79
2023/06/04 01:55:58;;;;;;;7.03;4.17;;;12.60;99.90;;;;;;5014194;28;20215;-77
2023/06/04 01:58:26;;;;;;;8.73;4.03;;;12.60;99.90;;;;;;5012688;28;20210;-77
2023/06/04 02:00:54;;;;;;;7.23;3.93;;;12.50;99.90;;;;;;5013827;28;20227;-79
2023/06/04 02:03:21;;;;;;;7.23;3.97;;;12.50;99.90;;;;;;5013535;28;20250;-77
2023/06/04 02:05:50;;;;;;;7.27;4.47;;;12.50;99.90;;;;;;5013667;28;20286;-78
2023/06/04 02:08:18;;;;;;;7.10;4.23;;;12.50;99.90;;;;;;5027368;28;20531;-77
2023/06/04 02:10:47;;;;;;;9.20;4.33;;;12.50;99.90;;;;;;5032816;28;20583;-78
2023/06/04 02:13:15;;;;;;;5.83;4.50;;;12.50;99.90;;;;;;5016706;28;20253;-80
2023/06/04 02:15:42;;;;;;;6.87;4.20;;;12.50;99.90;;;;;;5032972;28;20202;-78
2023/06/04 02:18:15;;;;;;;7.03;3.63;;;12.50;99.90;;;;;;5024429;28;20214;-77
2023/06/04 02:20:42;;;;;;;7.00;4.03;;;12.50;99.90;;;;;;5032955;28;20221;-80
2023/06/04 02:23:11;;;;;;;8.93;4.43;;;12.50;99.90;;;;;;5032936;28;20198;-78
2023/06/04 02:25:37;;;;;;;7.13;4.63;;;12.50;99.90;;;;;;5017383;28;20619;-78
2023/06/04 02:28:04;;;;;;;7.33;4.67;;;12.50;99.90;;;;;;5013415;28;20291;-78
2023/06/04 02:30:31;;;;;;;6.90;4.20;;;12.50;99.90;;;;;;5013377;28;20250;-79
2023/06/04 02:33:00;;;;;;;5.80;4.17;;;12.50;99.90;;;;;;5012566;28;20286;-78
2023/06/04 02:35:27;;;;;;;10.07;4.67;;;12.40;99.90;;;;;;5013070;28;20200;-77
2023/06/04 02:37:56;;;;;;;10.67;4.70;;;12.40;99.90;;;;;;5013541;28;20199;-78
2023/06/04 02:40:24;;;;;;;7.03;5.20;;;12.40;99.90;;;;;;5012282;28;20506;-77
2023/06/04 02:42:52;;;;;;;8.00;4.90;;;12.30;99.90;;;;;;5026043;28;20242;-77
2023/06/04 02:45:20;;;;;;;7.90;4.57;;;12.30;99.90;;;;;;5032509;28;20268;-78
2023/06/04 02:47:46;;;;;;;7.37;5.10;;;12.30;99.90;;;;;;5031938;28;20198;-77
2023/06/04 02:50:15;;;;;;;8.60;5.00;;;12.30;99.90;;;;;;5039981;28;20237;-77
2023/06/04 02:52:42;;;;;;;9.47;5.20;;;12.30;99.90;;;;;;5051811;28;20200;-79
2023/06/04 02:55:11;;;;;;;8.63;5.23;;;12.30;99.90;;;;;;5052736;28;20317;-78
2023/06/04 02:57:41;;;;;;;9.27;4.77;;;12.30;99.90;;;;;;5052124;28;20202;-78
2023/06/04 03:00:12;;;;;;;8.40;5.20;;;12.30;99.90;;;;;;5043126;28;20234;-79
2023/06/04 03:02:40;;;;;;;10.63;4.90;;;12.30;99.90;;;;;;5032263;28;20508;-79
2023/06/04 03:05:10;;;;;;;10.10;5.90;;;12.30;99.90;;;;;;5032447;28;20207;-79
2023/06/04 03:07:37;;;;;;;11.73;4.90;;;12.30;99.90;;;;;;5041157;28;20733;-78
2023/06/04 03:10:04;;;;;;;9.50;5.50;;;12.30;99.90;;;;;;5044947;28;20197;-78
2023/06/04 03:12:31;;;;;;;11.93;4.83;;;12.30;99.90;;;;;;5032210;28;20195;-77
2023/06/04 03:15:00;;;;;;;10.50;5.23;;;12.20;99.90;;;;;;5031226;28;20719;-78
2023/06/04 03:17:27;;;;;;;11.33;5.67;;;12.20;99.90;;;;;;5031882;28;20289;-80
2023/06/04 03:19:55;;;;;;;6.93;4.67;;;12.20;99.90;;;;;;5042371;28;20217;-80
2023/06/04 03:22:23;;;;;;;8.37;4.73;;;12.20;99.90;;;;;;5047342;28;20263;-78
2023/06/04 03:24:52;;;;;;;10.97;5.47;;;12.10;99.90;;;;;;5032119;28;20191;-78
2023/06/04 03:27:19;;;;;;;7.63;5.10;;;12.10;99.90;;;;;;5032225;28;20233;-78
2023/06/04 03:29:46;;;;;;;9.63;5.37;;;12.10;99.90;;;;;;5031594;28;20206;-77
2023/06/04 03:32:15;;;;;;;10.07;5.77;;;12.10;99.90;;;;;;5031914;28;20221;-78
2023/06/04 03:34:43;;;;;;;9.23;5.00;;;12.10;99.90;;;;;;5038134;23;20234;-78
2023/06/04 03:37:10;;;;;;;11.53;4.90;;;12.10;99.90;;;;;;5030953;28;20523;-78
2023/06/04 03:39:37;;;;;;;8.77;5.33;;;12.10;99.90;;;;;;5012021;28;20188;-79
2023/06/04 03:42:05;;;;;;;9.47;5.10;;;12.10;99.90;;;;;;5011592;28;20219;-79
2023/06/04 03:44:31;;;;;;;7.13;4.60;;;12.10;99.90;;;;;;5011624;28;20283;-77
2023/06/04 03:46:58;;;;;;;8.67;4.70;;;12.00;99.90;;;;;;5011780;28;20757;-77
2023/06/04 03:49:27;;;;;;;12.77;6.33;;;12.10;99.90;;;;;;5011263;28;20671;-79
2023/06/04 03:51:53;;;;;;;10.20;5.57;;;12.10;99.90;;;;;;5012715;28;20286;-79
2023/06/04 03:54:20;;;;;;;11.20;5.37;;;12.00;99.90;;;;;;5012261;28;20249;-77
2023/06/04 03:56:48;;;;;;;13.03;5.50;;;12.10;99.90;;;;;;5011474;28;20204;-78
2023/06/04 03:59:15;;;;;;;8.07;5.10;;;12.10;99.90;;;;;;5012126;28;20289;-79
2023/06/04 04:01:43;;;;;;;8.67;5.33;;;12.10;99.90;;;;;;5011366;28;20338;-79
2023/06/04 04:04:10;;;;;;;8.80;5.37;;;12.10;99.90;;;;;;5011296;28;20210;-79
2023/06/04 04:06:38;;;;;;;9.33;5.27;;;12.10;99.90;;;;;;5011878;28;20195;-79
2023/06/04 04:09:06;;;;;;;11.47;4.80;;;12.10;99.90;;;;;;5012064;28;20209;-77
2023/06/04 04:11:33;;;;;;;10.10;5.00;;;12.20;99.90;;;;;;5011677;28;20195;-79
2023/06/04 04:14:00;;;;;;;11.80;6.23;;;12.20;99.90;;;;;;5012286;28;20211;-79
2023/06/04 04:16:27;;;;;;;9.37;6.20;;;12.20;99.90;;;;;;5011815;28;20207;-79
2023/06/04 04:18:54;;;;;;;9.17;5.07;;;12.20;99.90;;;;;;5012016;28;20239;-80
2023/06/04 04:21:21;;;;;;;9.20;5.57;;;12.30;99.90;;;;;;5013018;28;20234;-77
2023/06/04 04:23:51;;;;;;;8.60;4.97;;;12.40;99.90;;;;;;5016083;28;20206;-77
2023/06/04 04:26:18;;;;;;;10.03;4.80;;;12.40;99.90;;;;;;5015263;28;20199;-80
2023/06/04 04:28:45;;;;;;;10.37;4.63;;;12.40;99.90;;;;;;5015486;28;20302;-79
2023/06/04 04:31:12;;;;;;;7.23;4.20;;;12.50;99.90;;;;;;5014828;28;20278;-79
2023/06/04 04:33:40;;;;;;;13.10;4.83;;;12.50;99.90;;;;;;5015092;28;20267;-79
2023/06/04 04:36:12;;;;;;;9.80;4.93;;;12.50;99.90;;;;;;5015724;28;20206;-79
2023/06/04 04:38:39;;;;;;;10.30;4.70;;;12.50;99.90;;;;;;5014953;28;20199;-75
2023/06/04 04:41:11;;;;;;;7.50;4.10;;;12.50;99.90;;;;;;5015156;28;20231;-77
2023/06/04 04:43:39;;;;;;;9.03;4.17;;;12.50;99.90;;;;;;5015522;28;20218;-79
2023/06/04 04:46:06;;;;;;;10.13;4.87;;;12.50;99.90;;;;;;5014644;28;20604;-79
2023/06/04 04:48:33;;;;;;;9.93;4.93;;;12.60;99.90;;;;;;5021518;28;20213;-79
2023/06/04 04:51:00;;;;;;;10.33;4.47;;;12.70;99.90;;;;;;5034983;28;20289;-78
2023/06/04 04:53:28;;;;;;;7.37;3.67;;;12.70;99.90;;;;;;5034085;28;20203;-80
2023/06/04 04:55:54;;;;;;;10.40;5.00;;;12.70;99.90;;;;;;5034994;28;20607;-80
2023/06/04 04:58:23;;;;;;;6.37;4.30;;;12.80;99.90;;;;;;5026011;28;20204;-78
2023/06/04 05:00:50;;;;;;;11.23;5.17;;;13.00;99.90;;;;;;5014007;28;20231;-79
2023/06/04 05:03:17;;;;;;;10.33;4.33;;;13.30;99.90;;;;;;5014693;28;20246;-79
2023/06/04 05:05:44;;;;;;;11.87;4.60;;;13.60;99.90;;;;;;5015092;28;20199;-80
2023/06/04 05:08:11;;;;;;;12.40;5.20;;;13.90;99.90;;;;;;5013809;28;20207;-77
2023/06/04 05:10:38;;;;;;;10.33;4.87;;;14.30;99.90;;;;;;5014917;28;20578;-80
2023/06/04 05:13:06;;;;;;;7.70;3.83;;;14.60;99.90;;;;;;5014761;28;20211;-79
2023/06/04 05:15:34;;;;;;;11.65;4.28;;;14.90;99.90;;;;;;5014637;28;20524;-78
2023/06/04 05:18:03;;;;;;;8.55;3.53;;;15.20;99.90;;;;;;5014640;28;20274;-79
2023/06/04 05:20:30;;;;;;;10.82;4.32;;;15.30;99.90;;;;;;5013913;28;20231;-77
2023/06/04 05:22:57;;;;;;;8.68;4.30;;;15.50;99.90;;;;;;5014754;28;20209;-80
2023/06/04 05:25:24;;;;;;;8.00;3.50;;;15.80;99.90;;;;;;5014349;28;20242;-79
2023/06/04 05:27:51;;;;;;;7.70;3.75;;;16.10;99.90;;;;;;5014119;28;20294;-80
2023/06/04 05:30:18;;;;;;;9.48;4.00;;;16.30;99.90;;;;;;5014105;28;20209;-79
2023/06/04 05:32:46;;;;;;;6.43;3.20;;;16.50;99.90;;;;;;5013364;28;20198;-81
2023/06/04 05:35:13;;;;;;;7.43;3.58;;;16.70;99.90;;;;;;5013250;28;20338;-79
2023/06/04 05:37:41;;;;;;;7.70;3.50;;;16.90;99.90;;;;;;5014406;28;20240;-80
2023/06/04 05:40:10;;;;;;;8.45;3.83;;;17.00;99.90;;;;;;5014362;28;20206;-79
2023/06/04 05:42:37;;;;;;;9.98;3.65;;;17.10;99.90;;;;;;5013505;28;20233;-80
2023/06/04 05:45:08;;;;;;;7.75;4.07;;;17.10;99.90;;;;;;5014023;28;20204;-79
2023/06/04 05:47:35;;;;;;;5.75;3.40;;;17.00;99.90;;;;;;5014280;28;20539;-78
2023/06/04 05:50:04;;;;;;;8.30;3.67;;;17.10;99.90;;;;;;5013072;28;20292;-79
2023/06/04 05:52:33;;;;;;;9.32;3.35;;;17.20;99.90;;;;;;5014069;28;20601;-77
2023/06/04 05:54:59;;;;;;;7.38;3.03;;;17.10;99.90;;;;;;5013724;28;20481;-80
2023/06/04 05:57:26;;;;;;;5.90;2.95;;;17.10;99.90;;;;;;5013090;28;20210;-78
2023/06/04 05:59:53;;;;;;;8.75;3.72;;;17.20;99.90;;;;;;5013490;28;20206;-77
2023/06/04 06:02:20;;;;;;;10.25;3.67;;;17.40;99.90;;;;;;5013170;28;20789;-79
2023/06/04 06:04:47;;;;;;;6.45;3.13;;;17.40;99.90;;;;;;5014018;28;20596;-80
2023/06/04 06:07:15;;;;;;;7.72;3.42;;;17.40;99.90;;;;;;5014102;28;20231;-77
2023/06/04 06:09:42;;;;;;;9.60;3.13;;;17.40;99.90;;;;;;5013008;28;20302;-79
2023/06/04 06:12:09;;;;;;;9.05;3.20;;;17.60;99.90;;;;;;5033120;28;20290;-80
2023/06/04 06:14:36;;;;;;;11.07;3.45;;;17.80;99.90;;;;;;5033465;28;20210;-79
2023/06/04 06:17:04;;;;;;;7.60;3.00;;;18.10;99.90;;;;;;5032048;28;20202;-78
2023/06/04 06:19:31;;;;;;;7.40;3.08;;;18.40;99.90;;;;;;5018502;28;20211;-79
2023/06/04 06:21:59;;;;;;;8.82;3.45;;;18.40;99.90;;;;;;5013166;28;20215;-78
2023/06/04 06:24:27;;;;;;;6.35;2.25;;;18.30;99.90;;;;;;5012232;28;20211;-83
2023/06/04 06:26:54;;;;;;;5.80;2.47;;;18.40;99.90;;;;;;5032672;28;20581;-76
2023/06/04 06:29:21;;;;;;;8.18;3.60;;;18.60;99.90;;;;;;5032856;28;20265;-79
2023/06/04 06:31:49;;;;;;;6.63;2.85;;;18.70;99.90;;;;;;5023376;28;20206;-81
2023/06/04 06:34:16;;;;;;;5.78;2.83;;;18.90;99.90;;;;;;5025929;28;20234;-77
2023/06/04 06:36:44;;;;;;;4.80;2.55;;;19.00;99.90;;;;;;4993441;28;20278;-80
2023/06/04 06:39:12;;;;;;;5.20;2.38;;;19.10;99.90;;;;;;4992556;28;20479;-79
2023/06/04 06:41:40;;;;;;;7.35;3.15;;;19.30;99.90;;;;;;5004090;28;20227;-79
2023/06/04 06:44:07;;;;;;;8.00;2.55;;;19.30;99.90;;;;;;5024860;28;20207;-80
2023/06/04 06:46:34;;;;;;;9.18;2.67;;;19.30;99.90;;;;;;4997263;28;20576;-79
2023/06/04 06:59:57;;;;;;;5.30;2.40;;;19.40;99.90;;;;;;4889278;28;20618;-79
2023/06/04 07:02:24;;;;;;;9.20;2.53;;;19.50;99.90;;;;;;5004077;28;20564;-79
2023/06/04 07:04:51;;;;;;;4.45;2.35;;;19.70;99.90;;;;;;4975628;28;20210;-78
2023/06/04 07:07:18;;;;;;;9.48;2.80;;;19.80;99.90;;;;;;5013053;28;20297;-79
2023/06/04 07:09:45;;;;;;;7.35;2.67;;;20.10;99.90;;;;;;5025376;28;20409;-79
2023/06/04 07:12:12;;;;;;;7.25;2.55;;;20.30;99.90;;;;;;5009023;28;20205;-80
2023/06/04 07:14:39;;;;;;;6.38;2.42;;;20.10;99.90;;;;;;5024196;28;20700;-79
2023/06/04 07:17:07;;;;;;;6.35;2.30;;;20.40;99.90;;;;;;5000401;28;20299;-78
2023/06/04 07:19:34;;;;;;;6.88;2.50;;;20.50;99.90;;;;;;5011051;28;20266;-78
2023/06/04 07:22:01;;;;;;;6.55;2.67;;;20.60;99.90;;;;;;5011440;28;20631;-78
2023/06/04 07:24:28;;;;;;;5.43;2.50;;;20.80;99.90;;;;;;5021904;28;20252;-77
2023/06/04 07:26:55;;;;;;;3.67;2.30;;;21.00;99.90;;;;;;5028312;28;20533;-80
2023/06/04 07:29:22;;;;;;;7.47;2.65;;;21.10;99.90;;;;;;5002514;28;20234;-79
2023/06/04 07:31:49;;;;;;;4.95;2.60;;;21.20;99.90;;;;;;5011659;28;20231;-80
2023/06/04 07:34:17;;;;;;;5.05;2.03;;;21.30;99.90;;;;;;5017743;28;20754;-79
2023/06/04 07:36:44;;;;;;;4.50;1.88;;;21.40;99.90;;;;;;5028007;28;20209;-80
2023/06/04 07:39:11;;;;;;;5.45;2.30;;;21.50;99.90;;;;;;5028530;28;20289;-79
2023/06/04 07:41:38;;;;;;;7.18;2.42;;;21.10;99.90;;;;;;5027757;28;20317;-79
2023/06/04 07:44:05;;;;;;;5.75;2.75;;;21.00;99.90;;;;;;5024860;28;20289;-79
2023/06/04 07:46:32;;;;;;;5.60;2.40;;;21.10;99.90;;;;;;5031595;28;20202;-79
2023/06/04 07:48:58;;;;;;;4.93;2.00;;;21.50;99.90;;;;;;5030781;28;20542;-80
2023/06/04 07:51:27;;;;;;;5.35;1.95;;;21.60;99.90;;;;;;5020913;28;20242;-82
2023/06/04 07:53:54;;;;;;;4.72;1.85;;;21.70;99.90;;;;;;5008422;28;20203;-84
2023/06/04 07:56:20;;;;;;;4.68;2.28;;;21.60;99.90;;;;;;5028367;28;20193;-80
2023/06/04 07:58:47;;;;;;;6.18;2.17;;;21.50;99.90;;;;;;5035573;28;20208;-78
2023/06/04 08:01:15;;;;;;;4.53;2.00;;;21.50;99.90;;;;;;5035238;28;20313;-79
2023/06/04 08:03:42;;;;;;;3.22;1.40;;;21.50;99.90;;;;;;5029806;28;20209;-79
2023/06/04 08:06:09;;;;;;;2.88;1.65;;;21.60;99.90;;;;;;5027161;28;20203;-80
2023/06/04 08:08:38;;;;;;;5.25;2.60;;;22.00;99.90;;;;;;5035415;28;20294;-79
2023/06/04 08:11:05;;;;;;;4.05;2.05;;;22.20;99.90;;;;;;5035510;28;20244;-80
2023/06/04 08:13:32;;;;;;;2.88;1.88;;;22.00;99.90;;;;;;5026262;28;20213;-80
2023/06/04 08:15:59;;;;;;;2.97;1.60;;;22.10;99.90;;;;;;5015989;28;20286;-81
2023/06/04 08:18:26;;;;;;;5.22;2.00;;;22.00;99.90;;;;;;5016009;28;20203;-81
2023/06/04 08:20:52;;;;;;;3.92;2.08;;;21.90;99.90;;;;;;5016097;28;20795;-76
2023/06/04 08:23:19;;;;;;;4.88;1.85;;;22.00;99.90;;;;;;5015264;28;20235;-78
2023/06/04 08:25:47;;;;;;;4.00;1.95;;;22.00;99.90;;;;;;5016268;28;20496;-78
2023/06/04 08:28:15;;;;;;;4.00;1.40;;;22.10;99.90;;;;;;5015361;28;20221;-78
2023/06/04 08:30:42;;;;;;;4.18;1.48;;;22.10;99.90;;;;;;5018763;28;20203;-79
2023/06/04 08:33:09;;;;;;;3.80;1.80;;;21.90;99.90;;;;;;5035630;28;20590;-78
2023/06/04 08:35:37;;;;;;;4.20;1.92;;;22.00;99.90;;;;;;5005764;28;20270;-79
2023/06/04 08:38:04;;;;;;;4.22;1.63;;;22.20;99.90;;;;;;5015200;28;20600;-76
2023/06/04 08:40:31;;;;;;;2.85;1.30;;;22.10;99.90;;;;;;5015780;28;20207;-76
2023/06/04 08:43:01;;;;;;;3.83;1.67;;;22.30;99.90;;;;;;5014904;28;20235;-78
2023/06/04 08:45:28;;;;;;;6.80;1.98;;;22.50;99.90;;;;;;5014931;28;20211;-77
2023/06/04 08:47:55;;;;;;;3.60;1.63;;;22.70;99.90;;;;;;5015235;28;20198;-79
2023/06/04 08:50:24;;;;;;;4.03;1.23;;;23.00;99.90;;;;;;5015930;28;20203;-77
2023/06/04 08:52:54;;;;;;;4.43;1.85;;;23.10;99.90;;;;;;5026592;28;20194;-81
2023/06/04 08:55:22;;;;;;;3.03;1.20;;;22.90;99.90;;;;;;5037426;28;20211;-79
2023/06/04 08:57:51;;;;;;;3.03;1.35;;;22.90;99.90;;;;;;5024408;28;20254;-84
2023/06/04 09:00:21;;;;;;;3.85;1.60;;;23.10;99.90;;;;;;5034994;28;20272;-80
2023/06/04 09:02:48;;;;;;;3.10;1.27;;;23.20;99.90;;;;;;5021211;28;20262;-82
2023/06/04 09:05:21;;;;;;;4.60;1.85;;;23.30;99.90;;;;;;5031644;28;20701;-79
2023/06/04 09:07:49;;;;;;;2.55;1.50;;;23.40;99.90;;;;;;5028401;28;20202;-79
2023/06/04 09:10:19;;;;;;;4.93;1.60;;;23.40;99.90;;;;;;5033829;28;20264;-80
2023/06/04 09:12:48;;;;;;;3.25;1.60;;;23.50;99.90;;;;;;5023909;28;20215;-81
2023/06/04 09:15:15;;;;;;;5.60;1.70;;;23.30;99.90;;;;;;5033662;28;20467;-81
2023/06/04 09:17:44;;;;;;;4.28;1.30;;;23.40;99.90;;;;;;5033695;28;20217;-81
2023/06/04 09:20:20;;;;;;;4.38;2.00;;;23.60;99.90;;;;;;5027879;28;20213;-80
2023/06/04 09:22:47;;;;;;;3.97;1.70;;;24.00;99.90;;;;;;5033908;28;20258;-78
2023/06/04 09:25:21;;;;;;;3.90;1.73;;;24.00;99.90;;;;;;5030646;28;20298;-87
2023/06/04 09:27:48;;;;;;;2.47;1.73;;;23.80;99.90;;;;;;5028471;28;20194;-79
2023/06/04 09:30:16;;;;;;;2.00;1.50;;;23.90;99.90;;;;;;5022400;28;20202;-81
2023/06/04 09:32:44;;;;;;;3.08;1.42;;;23.70;99.90;;;;;;5031410;28;20518;-81
2023/06/04 09:35:12;;;;;;;4.53;1.70;;;23.50;99.90;;;;;;5028568;28;20678;-80
2023/06/04 09:37:39;;;;;;;4.32;1.60;;;23.60;99.90;;;;;;5019893;28;20199;-79
2023/06/04 09:40:08;;;;;;;3.28;1.50;;;23.60;99.90;;;;;;5024575;28;20199;-80
2023/06/04 09:42:43;;;;;;;3.45;1.58;;;23.50;99.90;;;;;;5013061;28;20224;-81
2023/06/04 09:45:11;;;;;;;2.08;1.42;;;23.40;99.90;;;;;;5014135;28;20191;-80
2023/06/04 09:47:44;;;;;;;2.75;1.38;;;23.40;99.90;;;;;;5013384;28;20207;-80
2023/06/04 09:50:12;;;;;;;2.95;1.63;;;23.70;99.90;;;;;;5013741;28;20206;-81
2023/06/04 09:52:40;;;;;;;4.68;1.30;;;23.50;99.90;;;;;;5013246;28;20210;-79
2023/06/04 09:55:19;;;;;;;1.90;1.38;;;23.40;99.90;;;;;;5013481;28;20243;-78
2023/06/04 09:57:49;;;;;;;2.33;1.60;;;23.60;99.90;;;;;;5030574;28;20207;-80
2023/06/04 10:00:18;;;;;;;6.10;1.67;;;23.80;99.90;;;;;;5030938;28;20207;-80
2023/06/04 10:02:48;;;;;;;3.42;1.65;;;24.00;99.90;;;;;;5031214;28;20211;-81
2023/06/04 10:05:15;;;;;;;3.72;1.70;;;23.70;99.90;;;;;;5033040;28;20216;-81
2023/06/04 10:07:44;;;;;;;2.33;1.50;;;24.00;99.90;;;;;;5025594;28;20218;-79
2023/06/04 10:10:15;;;;;;;5.35;1.27;;;24.00;99.90;;;;;;5017978;28;20203;-79
2023/06/04 10:12:43;;;;;;;2.38;1.17;;;24.10;99.90;;;;;;5033118;28;20195;-80
2023/06/04 10:15:13;;;;;;;2.30;1.00;;;24.10;99.90;;;;;;5026141;28;20600;-81
2023/06/04 10:17:41;;;;;;;2.78;1.40;;;24.40;99.90;;;;;;5010999;28;20309;-80
2023/06/04 10:20:11;;;;;;;1.95;1.10;;;24.70;99.90;;;;;;5011321;28;20260;-79
2023/06/04 10:22:39;;;;;;;2.03;1.23;;;24.90;99.90;;;;;;5011084;28;20605;-80
2023/06/04 10:25:10;;;;;;;3.53;1.52;;;24.80;99.90;;;;;;5012469;28;20199;-80
2023/06/04 10:27:37;;;;;;;2.65;1.15;;;24.60;99.90;;;;;;5012029;28;20225;-78
2023/06/04 10:30:06;;;;;;;2.55;1.13;;;24.70;99.90;;;;;;5012487;28;20207;-79
2023/06/04 10:32:35;;;;;;;3.22;1.08;;;24.80;99.90;;;;;;5013278;28;20230;-77
2023/06/04 10:35:07;;;;;;;2.25;1.40;;;24.60;99.90;;;;;;5013027;28;20246;-78
2023/06/04 10:37:35;;;;;;;4.88;1.40;;;24.50;99.90;;;;;;5012251;28;20289;-78
2023/06/04 10:40:04;;;;;;;2.47;1.27;;;24.70;99.90;;;;;;5013114;28;20608;-78
2023/06/04 10:42:40;;;;;;;2.20;1.15;;;24.60;99.90;;;;;;5012804;28;20234;-77
2023/06/04 10:45:09;;;;;;;1.67;1.10;;;24.30;99.90;;;;;;5012453;28;20202;-75
2023/06/04 10:47:40;;;;;;;2.90;1.20;;;24.50;99.90;;;;;;5012837;28;20207;-78
2023/06/04 10:50:11;;;;;;;2.42;1.55;;;24.50;99.90;;;;;;5011807;28;20207;-79
2023/06/04 10:52:41;;;;;;;2.00;1.15;;;24.60;99.90;;;;;;5029601;28;20519;-77
2023/06/04 10:55:09;;;;;;;2.97;1.17;;;24.40;99.90;;;;;;5023296;28;20612;-78
2023/06/04 10:57:36;;;;;;;2.05;0.90;;;24.70;99.90;;;;;;5010922;28;20557;-76
2023/06/04 11:00:09;;;;;;;3.80;1.50;;;24.80;99.90;;;;;;5023309;28;20198;-77
2023/06/04 11:02:37;;;;;;;3.53;1.50;;;24.90;99.90;;;;;;5030830;28;20317;-77
2023/06/04 11:05:08;;;;;;;2.40;1.30;;;24.70;99.90;;;;;;5023430;28;20499;-77
2023/06/04 11:07:44;;;;;;;2.95;1.40;;;24.50;99.90;;;;;;5030776;28;20195;-77
2023/06/04 11:10:12;;;;;;;2.00;1.15;;;24.50;99.90;;;;;;5022821;28;20211;-77
2023/06/04 11:12:46;;;;;;;3.15;1.48;;;25.00;99.90;;;;;;5010284;28;20200;-79
2023/06/04 11:15:14;;;;;;;3.03;1.30;;;25.00;99.90;;;;;;5026249;28;20202;-79
2023/06/04 11:17:51;;;;;;;2.42;1.15;;;24.90;99.90;;;;;;5021258;28;20604;-77
2023/06/04 11:20:19;;;;;;;1.77;1.23;;;25.10;99.90;;;;;;5022608;28;20199;-77
2023/06/04 11:22:54;;;;;;;2.90;1.70;;;25.20;99.90;;;;;;5010871;28;20226;-78
2023/06/04 11:25:22;;;;;;;7.25;1.95;;;25.30;99.90;;;;;;5026238;28;20198;-78
2023/06/04 11:27:49;;;;;;;2.20;1.20;;;25.30;99.90;;;;;;5031395;28;20198;-77
2023/06/04 11:30:17;;;;;;;2.92;1.33;;;25.30;99.90;;;;;;5024153;28;20214;-78
2023/06/04 11:32:44;;;;;;;3.25;1.52;;;25.50;99.90;;;;;;5011954;28;20197;-77
2023/06/04 11:35:11;;;;;;;2.10;1.25;;;25.40;99.90;;;;;;5010998;28;20727;-77
2023/06/04 11:37:39;;;;;;;2.58;1.20;;;25.20;99.90;;;;;;5012080;28;20195;-79
2023/06/04 11:40:18;;;;;;;3.53;1.55;;;25.10;99.90;;;;;;5011829;28;20203;-76
2023/06/04 11:42:45;;;;;;;1.60;1.27;;;25.00;99.90;;;;;;5012248;28;20791;-80
2023/06/04 11:45:14;;;;;;;6.40;1.50;;;25.20;99.90;;;;;;5012329;28;20287;-78
2023/06/04 11:47:42;;;;;;;3.42;1.60;;;25.30;99.90;;;;;;5011041;28;20317;-78
2023/06/04 11:50:10;;;;;;;3.58;1.50;;;25.20;99.90;;;;;;5012111;28;20207;-78
2023/06/04 11:52:37;;;;;;;2.63;1.40;;;25.10;99.90;;;;;;5011338;28;20238;-79
2023/06/04 11:55:06;;;;;;;2.03;1.27;;;25.20;99.90;;;;;;5011013;28;20628;-78
2023/06/04 11:57:34;;;;;;;4.70;1.67;;;25.20;99.90;;;;;;5011689;28;20210;-78
2023/06/04 12:00:01;;;;;;;4.05;1.55;;;25.30;99.90;;;;;;5011709;28;20218;-78
2023/06/04 12:02:28;;;;;;;2.35;1.40;;;25.40;99.90;;;;;;5011006;28;20223;-80
2023/06/04 12:04:55;;;;;;;5.40;1.58;;;25.40;99.90;;;;;;5011283;28;20215;-78
2023/06/04 12:07:24;;;;;;;2.70;1.40;;;25.50;99.90;;;;;;5011606;28;20663;-79
2023/06/04 12:09:51;;;;;;;3.20;1.25;;;25.50;99.90;;;;;;5011166;28;20540;-79
2023/06/04 12:12:24;;;;;;;2.35;1.48;;;25.60;99.90;;;;;;5011699;28;20214;-78
2023/06/04 12:14:59;;;;;;;5.22;1.80;;;25.70;99.90;;;;;;5012282;28;20188;-77
2023/06/04 12:17:26;;;;;;;2.38;1.40;;;25.90;99.90;;;;;;5022129;28;20198;-78
2023/06/04 12:19:55;;;;;;;2.92;1.33;;;26.00;99.90;;;;;;5031506;28;20198;-79
2023/06/04 12:22:22;;;;;;;4.50;1.58;;;26.00;99.90;;;;;;5030947;28;20195;-78
2023/06/04 12:24:52;;;;;;;2.40;1.48;;;26.00;99.90;;;;;;5022589;28;20211;-78
2023/06/04 12:27:21;;;;;;;2.92;1.60;;;25.80;99.90;;;;;;5011910;28;20206;-79
2023/06/04 12:29:58;;;;;;;2.38;1.20;;;25.70;99.90;;;;;;5010705;28;20588;-78
2023/06/04 12:32:25;;;;;;;3.65;1.50;;;25.70;99.90;;;;;;5011762;28;20496;-77
2023/06/04 12:34:52;;;;;;;3.33;1.33;;;25.80;99.90;;;;;;5011406;28;20270;-80
2023/06/04 12:37:19;;;;;;;2.80;1.30;;;25.70;99.90;;;;;;5011138;28;20481;-78
2023/06/04 12:39:46;;;;;;;2.35;1.40;;;25.40;99.90;;;;;;5011226;28;20254;-78
2023/06/04 12:42:13;;;;;;;2.53;1.40;;;25.50;99.90;;;;;;5011986;28;20257;-78
2023/06/04 12:44:41;;;;;;;3.65;1.42;;;25.40;99.90;;;;;;5014720;28;20631;-78
2023/06/04 12:47:09;;;;;;;4.03;1.40;;;25.50;99.90;;;;;;5015240;28;20238;-80
2023/06/04 12:49:36;;;;;;;2.42;1.48;;;25.40;99.90;;;;;;5015018;28;20638;-79
2023/06/04 12:52:04;;;;;;;2.70;1.30;;;25.20;99.90;;;;;;5014603;28;20234;-79
2023/06/04 12:54:30;;;;;;;5.03;1.58;;;25.50;99.90;;;;;;5014906;28;20254;-78
2023/06/04 12:56:59;;;;;;;2.60;1.50;;;25.60;99.90;;;;;;5014615;28;20277;-77
2023/06/04 12:59:26;;;;;;;3.22;1.52;;;25.60;99.90;;;;;;5014184;28;20207;-80
2023/06/04 13:01:53;;;;;;;5.20;1.70;;;25.20;99.90;;;;;;5014323;28;20233;-78